Погода Оброкна неделю

Смоленская область, Россия

23 - 29 мая
  • 23мая
    Сегодня
    +9°
    +23°
    Ясно и безоблачно
    ВремяПогодаТемператураВлажностьДавлениеВетер, м/сВероятность осадков
    00:00Ясно и безоблачно+13°C92 %751 мм2.7 м/с2 %
    03:00Ясно и безоблачно+11°C94 %751 мм3.0 м/с2 %
    06:00Ясно и безоблачно+11°C72 %752 мм3.8 м/с2 %
    09:00Ясно и безоблачно+17°C62 %753 мм3.8 м/с2 %
    12:00Ясно и безоблачно+22°C52 %754 мм4.9 м/с2 %
    15:00Ясно и безоблачно+23°C45 %754 мм5.1 м/с2 %
    18:00Ясно и безоблачно+23°C43 %754 мм4.7 м/с2 %
    21:00Ясно и безоблачно+17°C52 %755 мм4.2 м/с2 %
  • 24мая
    Пятница
    +8°
    +22°
    Ясно и безоблачно
    ВремяПогодаТемператураВлажностьДавлениеВетер, м/сВероятность осадков
    00:00Ясно и безоблачно+13°C55 %756 мм3.9 м/с2 %
    03:00Ясно и безоблачно+10°C62 %756 мм3.8 м/с2 %
    06:00Ясно и безоблачно+10°C63 %757 мм3.8 м/с2 %
    09:00Ясно и безоблачно+15°C53 %758 мм4.0 м/с2 %
    12:00Ясно и безоблачно+19°C42 %758 мм4.1 м/с2 %
    15:00Ясно и безоблачно+20°C38 %757 мм4.1 м/с2 %
    18:00Ясно и безоблачно+21°C37 %756 мм3.8 м/с2 %
    21:00Ясно и безоблачно+15°C52 %756 мм2.7 м/с2 %
  • 25мая
    Суббота
    +8°
    +23°
    Ясно и безоблачно
    ВремяПогодаТемператураВлажностьДавлениеВетер, м/сВероятность осадков
    00:00Ясно и безоблачно+11°C61 %757 мм3.0 м/с2 %
    03:00Ясно и безоблачно+9°C67 %756 мм2.8 м/с2 %
    06:00Ясно и безоблачно+9°C71 %756 мм2.7 м/с2 %
    09:00Ясно и безоблачно+16°C56 %756 мм2.6 м/с2 %
    12:00Ясно и безоблачно+22°C43 %756 мм2.8 м/с2 %
    15:00Ясно и безоблачно+22°C38 %755 мм3.1 м/с2 %
    18:00Ясно и безоблачно+23°C41 %754 мм2.5 м/с4 %
    21:00Ясно и безоблачно+17°C60 %753 мм2.3 м/с2 %
  • 26мая
    Воскресенье
    +10°
    +24°
    Ясно и безоблачно
    ВремяПогодаТемператураВлажностьДавлениеВетер, м/сВероятность осадков
    00:00Ясно и безоблачно+12°C64 %753 мм2.4 м/с2 %
    03:00Практически безоблачно+9°C77 %753 мм2.4 м/с2 %
    06:00Ясно и безоблачно+10°C78 %753 мм1.0 м/с2 %
    09:00Ясно и безоблачно+19°C52 %754 мм0.4 м/с3 %
    12:00Небольшая облачность+23°C39 %754 мм1.9 м/с2 %
    15:00Ясно и безоблачно+23°C36 %753 мм0.5 м/с5 %
    18:00Ясно и безоблачно+25°C36 %753 мм0.7 м/с4 %
    21:00Ясно и безоблачно+17°C58 %753 мм1.6 м/с3 %
Мы используем cookies
Соглашаюсь